Time;durP1;ratioP1;P1;durP2;ratioP2;P2;SDS_P1;SDS_P2;PMS_P1;PMS_P2;Temp;Humidity;BMP_temperature;BMP_pressure;BME280_temperature;BME280_humidity;BME280_pressure;Samples;Min_cycle;Max_cycle;Signal;HPM_P1;HPM_P2
2023/01/28 00:00:08;;;;;;;4.00;1.80;;;21.90;48.70;;;;;;5021917;28;20037;-69
2023/01/28 00:02:35;;;;;;;3.97;1.80;;;21.90;48.70;;;;;;5017659;28;20033;-69
2023/01/28 00:05:00;;;;;;;2.95;1.70;;;21.90;48.70;;;;;;5015532;28;20140;-69
2023/01/28 00:07:26;;;;;;;3.55;1.70;;;21.80;48.60;;;;;;5017586;28;20064;-68
2023/01/28 00:09:52;;;;;;;3.15;1.70;;;21.80;48.70;;;;;;5019970;28;20588;-70
2023/01/28 00:12:18;;;;;;;3.60;1.88;;;21.80;48.80;;;;;;5025332;28;20101;-70
2023/01/28 00:14:45;;;;;;;3.20;1.50;;;21.80;48.80;;;;;;5015836;28;20385;-69
2023/01/28 00:17:11;;;;;;;2.80;1.42;;;21.70;48.70;;;;;;5018366;28;20029;-69
2023/01/28 00:19:37;;;;;;;3.40;1.83;;;21.70;48.80;;;;;;5019348;28;20420;-69
2023/01/28 00:22:03;;;;;;;3.33;1.67;;;21.70;48.80;;;;;;5019740;28;20449;-69
2023/01/28 00:24:32;;;;;;;2.80;1.40;;;21.70;48.70;;;;;;5017740;28;20441;-70
2023/01/28 00:26:57;;;;;;;2.58;1.50;;;21.60;48.70;;;;;;5020721;28;20030;-70
2023/01/28 00:29:23;;;;;;;2.35;1.40;;;21.60;48.70;;;;;;5021215;28;20038;-69
2023/01/28 00:31:48;;;;;;;2.85;1.40;;;21.60;49.20;;;;;;5025610;28;20361;-69
2023/01/28 00:34:14;;;;;;;2.80;1.42;;;21.60;48.80;;;;;;5020927;28;20381;-70
2023/01/28 00:36:41;;;;;;;2.30;1.40;;;21.60;48.80;;;;;;5033373;28;20026;-69
2023/01/28 00:39:10;;;;;;;2.65;1.30;;;21.60;48.70;;;;;;5017857;28;20026;-69
2023/01/28 00:41:36;;;;;;;2.63;1.30;;;21.50;48.80;;;;;;5020024;28;20057;-69
2023/01/28 00:44:02;;;;;;;2.85;1.40;;;21.50;48.80;;;;;;5017009;28;20450;-70
2023/01/28 00:46:27;;;;;;;2.92;1.42;;;21.50;48.80;;;;;;5017205;28;20408;-69
2023/01/28 00:48:53;;;;;;;2.35;1.50;;;21.40;48.70;;;;;;5018754;28;20029;-69
2023/01/28 00:51:19;;;;;;;3.17;1.55;;;21.40;48.70;;;;;;5015810;28;20025;-69
2023/01/28 00:53:45;;;;;;;2.13;1.10;;;21.40;48.70;;;;;;5020405;28;20440;-69
2023/01/28 00:56:16;;;;;;;3.00;1.48;;;21.40;48.70;;;;;;5020136;28;20037;-69
2023/01/28 00:58:42;;;;;;;2.30;1.25;;;21.40;48.80;;;;;;5017770;28;20125;-69
2023/01/28 01:01:11;;;;;;;2.53;1.17;;;21.30;48.80;;;;;;5019836;28;20438;-70
2023/01/28 01:03:37;;;;;;;3.10;1.33;;;21.30;48.80;;;;;;5016694;28;20196;-69
2023/01/28 01:06:03;;;;;;;2.20;1.30;;;21.30;48.70;;;;;;5019847;28;20060;-70
2023/01/28 01:08:33;;;;;;;2.60;1.35;;;21.30;48.80;;;;;;5021424;28;20026;-69
2023/01/28 01:11:03;;;;;;;2.10;1.20;;;21.30;48.80;;;;;;5034296;28;20025;-69
2023/01/28 01:13:31;;;;;;;2.80;1.25;;;21.20;48.80;;;;;;5017602;28;20064;-69
2023/01/28 01:16:01;;;;;;;2.03;1.30;;;21.20;48.80;;;;;;5034692;28;20482;-70
2023/01/28 01:18:27;;;;;;;2.22;1.33;;;21.20;48.80;;;;;;5017932;28;20390;-69
2023/01/28 01:20:57;;;;;;;2.22;1.40;;;21.20;48.80;;;;;;5019161;28;20038;-69
2023/01/28 01:23:30;;;;;;;2.22;1.27;;;21.20;48.90;;;;;;5025189;28;20045;-70
2023/01/28 01:25:56;;;;;;;2.35;1.35;;;21.10;49.40;;;;;;5018351;28;20036;-69
2023/01/28 01:28:22;;;;;;;3.05;1.17;;;21.10;48.80;;;;;;5019446;28;20084;-69
2023/01/28 01:30:48;;;;;;;2.13;1.20;;;21.10;49.30;;;;;;5018319;28;20022;-69
2023/01/28 01:33:15;;;;;;;2.00;1.25;;;21.10;48.90;;;;;;5022046;28;20034;-70
2023/01/28 01:35:41;;;;;;;1.88;1.10;;;21.10;48.90;;;;;;5017794;28;20118;-68
2023/01/28 01:38:07;;;;;;;2.10;1.15;;;21.00;48.90;;;;;;5018479;28;20080;-69
2023/01/28 01:40:33;;;;;;;2.28;1.20;;;21.00;48.90;;;;;;5016116;28;20521;-69
2023/01/28 01:42:58;;;;;;;1.85;1.13;;;21.00;49.00;;;;;;5014190;28;20485;-69
2023/01/28 01:45:25;;;;;;;1.80;1.00;;;21.00;49.00;;;;;;5014983;28;20026;-69
2023/01/28 01:47:59;;;;;;;1.50;1.00;;;21.00;49.50;;;;;;5017251;28;20052;-70
2023/01/28 01:50:30;;;;;;;2.72;1.20;;;21.00;49.00;;;;;;5021863;28;20030;-69
2023/01/28 01:53:01;;;;;;;1.85;1.20;;;20.90;49.00;;;;;;5021043;28;20033;-69
2023/01/28 01:55:31;;;;;;;1.92;1.13;;;20.90;49.10;;;;;;5036989;28;20034;-70
2023/01/28 01:58:00;;;;;;;1.95;1.25;;;20.90;49.00;;;;;;5022020;28;20025;-69
2023/01/28 02:00:26;;;;;;;2.63;1.20;;;20.90;49.10;;;;;;5020696;28;20109;-69
2023/01/28 02:02:52;;;;;;;1.92;1.10;;;20.90;49.10;;;;;;5020284;28;20176;-70
2023/01/28 02:05:21;;;;;;;1.90;1.10;;;20.80;49.10;;;;;;5024821;28;20484;-69
2023/01/28 02:07:49;;;;;;;2.13;1.10;;;20.80;49.10;;;;;;5021316;28;20026;-71
2023/01/28 02:10:15;;;;;;;2.42;1.10;;;20.80;49.10;;;;;;5021717;28;20372;-69
2023/01/28 02:12:51;;;;;;;2.03;1.10;;;20.80;49.10;;;;;;5018754;28;20080;-69
2023/01/28 02:15:20;;;;;;;1.50;1.00;;;20.80;49.10;;;;;;5023213;28;20422;-69
2023/01/28 02:17:48;;;;;;;1.38;1.00;;;20.80;49.20;;;;;;5022773;28;20018;-69
2023/01/28 02:20:37;;;;;;;1.40;1.00;;;20.70;49.10;;;;;;5023588;28;20046;-69
2023/01/28 02:23:17;;;;;;;1.20;0.93;;;20.70;49.10;;;;;;5018296;28;20378;-70
2023/01/28 02:26:17;;;;;;;1.60;1.00;;;20.70;49.20;;;;;;5026678;28;20997;-69
2023/01/28 02:28:51;;;;;;;2.38;1.17;;;20.70;49.20;;;;;;5023973;28;20041;-68
2023/01/28 02:31:37;;;;;;;1.83;1.10;;;20.70;49.20;;;;;;5021835;28;20064;-69
2023/01/28 02:34:17;;;;;;;2.05;1.20;;;20.60;49.20;;;;;;5019422;28;20432;-69
2023/01/28 02:37:10;;;;;;;1.75;1.00;;;20.60;49.20;;;;;;5021050;28;20026;-69
2023/01/28 02:39:43;;;;;;;2.40;1.50;;;20.60;49.30;;;;;;5035266;28;20065;-68
2023/01/28 02:42:15;;;;;;;1.17;0.95;;;20.60;49.70;;;;;;5022914;28;20090;-68
2023/01/28 02:44:41;;;;;;;1.48;0.90;;;20.60;49.30;;;;;;5022033;28;20033;-69
2023/01/28 02:49:58;;;;;;;1.90;1.00;;;20.60;49.40;;;;;;5021212;28;20095;-69
2023/01/28 02:55:40;;;;;;;1.77;1.00;;;20.50;49.40;;;;;;5022361;28;20049;-68
2023/01/28 02:58:30;;;;;;;1.63;0.95;;;20.50;49.40;;;;;;5016113;28;20033;-68
2023/01/28 03:00:56;;;;;;;1.60;1.00;;;20.50;49.50;;;;;;5027856;28;20124;-68
2023/01/28 03:03:34;;;;;;;1.45;0.90;;;20.50;49.50;;;;;;5019735;28;20489;-69
2023/01/28 03:06:09;;;;;;;1.33;1.00;;;20.50;49.50;;;;;;5022605;28;20022;-68
2023/01/28 03:38:40;;;;;;;1.83;1.00;;;20.30;49.70;;;;;;5022688;28;20059;-69
2023/01/28 03:41:08;;;;;;;1.85;1.20;;;20.30;49.80;;;;;;5016623;28;20052;-68
2023/01/28 03:43:34;;;;;;;1.60;1.02;;;20.30;49.70;;;;;;5020456;28;20041;-68
2023/01/28 03:46:00;;;;;;;1.52;1.00;;;20.30;49.80;;;;;;5017913;28;20034;-68
2023/01/28 03:48:27;;;;;;;1.85;1.20;;;20.30;49.80;;;;;;5016197;28;20172;-68
2023/01/28 03:50:55;;;;;;;1.60;0.98;;;20.30;49.80;;;;;;5025349;28;20460;-69
2023/01/28 03:53:21;;;;;;;1.58;0.90;;;20.20;49.70;;;;;;5017954;28;20026;-68
2023/01/28 03:55:49;;;;;;;1.55;1.00;;;20.30;49.90;;;;;;5020380;28;20033;-69
2023/01/28 03:58:15;;;;;;;1.17;0.90;;;20.30;49.80;;;;;;5019688;28;20029;-68
2023/01/28 04:00:42;;;;;;;1.15;0.85;;;20.20;49.80;;;;;;5017864;28;20444;-69
2023/01/28 04:03:15;;;;;;;1.95;0.93;;;20.20;49.80;;;;;;5022477;28;20369;-70
2023/01/28 04:06:02;;;;;;;0.90;0.80;;;20.20;49.80;;;;;;5021753;28;20331;-68
2023/01/28 04:08:27;;;;;;;1.30;0.93;;;20.20;49.80;;;;;;5019935;28;20034;-69
2023/01/28 04:10:53;;;;;;;0.98;0.80;;;20.20;49.90;;;;;;5019931;28;20103;-69
2023/01/28 04:13:19;;;;;;;1.17;0.90;;;20.20;49.90;;;;;;5022657;28;20488;-69
2023/01/28 04:15:46;;;;;;;1.25;0.90;;;20.20;49.90;;;;;;5019075;28;20425;-68
2023/01/28 04:18:12;;;;;;;1.55;0.98;;;20.20;49.90;;;;;;5017572;28;20013;-68
2023/01/28 04:20:38;;;;;;;1.67;1.00;;;20.20;49.90;;;;;;5021111;28;20128;-68
2023/01/28 04:23:05;;;;;;;1.65;0.90;;;20.20;49.90;;;;;;5022557;28;20045;-69
2023/01/28 04:25:31;;;;;;;1.25;0.75;;;20.10;49.80;;;;;;5019760;28;20115;-68
2023/01/28 04:27:57;;;;;;;1.05;0.80;;;20.20;50.00;;;;;;5016755;28;20380;-69
2023/01/28 04:30:23;;;;;;;1.52;1.00;;;20.20;50.00;;;;;;5018356;28;20033;-69
2023/01/28 04:32:49;;;;;;;1.08;0.80;;;20.10;49.90;;;;;;5017674;28;20032;-69
2023/01/28 04:35:16;;;;;;;1.35;0.90;;;20.20;50.00;;;;;;5020044;28;20029;-69
2023/01/28 04:37:42;;;;;;;1.40;1.00;;;20.10;50.00;;;;;;5018318;28;20056;-68
2023/01/28 04:40:09;;;;;;;1.10;0.70;;;20.20;50.00;;;;;;5018126;28;20036;-68
2023/01/28 04:42:34;;;;;;;1.42;0.90;;;20.10;50.00;;;;;;5017217;28;20025;-68
2023/01/28 04:45:00;;;;;;;1.30;0.80;;;20.10;50.00;;;;;;5016818;28;20544;-69
2023/01/28 04:47:26;;;;;;;1.30;0.90;;;20.10;50.10;;;;;;5018819;28;20075;-69
2023/01/28 04:49:51;;;;;;;1.10;0.85;;;20.10;50.60;;;;;;5019022;28;20084;-68
2023/01/28 04:52:17;;;;;;;0.90;0.80;;;20.10;50.00;;;;;;5020359;28;20400;-68
2023/01/28 04:54:42;;;;;;;1.10;0.88;;;20.10;50.00;;;;;;5019618;28;20044;-68
2023/01/28 04:57:08;;;;;;;1.02;0.80;;;20.10;50.10;;;;;;5017194;28;20396;-68
2023/01/28 04:59:34;;;;;;;1.77;0.90;;;20.10;50.10;;;;;;5026798;28;20525;-70
2023/01/28 05:01:59;;;;;;;1.13;0.80;;;20.10;50.10;;;;;;5020884;28;20034;-68
2023/01/28 05:04:25;;;;;;;1.02;0.77;;;20.10;50.10;;;;;;5022260;28;20017;-68
2023/01/28 05:06:51;;;;;;;1.42;0.90;;;20.10;50.10;;;;;;5020791;28;20069;-69
2023/01/28 05:09:16;;;;;;;1.40;0.85;;;20.10;50.10;;;;;;5016992;28;20033;-68
2023/01/28 05:11:42;;;;;;;0.90;0.70;;;20.10;50.10;;;;;;5020145;28;20045;-68
2023/01/28 05:14:08;;;;;;;1.55;1.00;;;20.00;50.10;;;;;;5019440;28;20033;-68
2023/01/28 05:16:33;;;;;;;1.00;0.80;;;20.10;50.10;;;;;;5019345;28;20032;-69
2023/01/28 05:19:00;;;;;;;1.17;0.77;;;20.10;50.20;;;;;;5020793;28;20026;-68
2023/01/28 05:21:26;;;;;;;1.08;0.70;;;20.00;50.10;;;;;;5018765;28;20410;-68
2023/01/28 05:23:52;;;;;;;1.00;0.80;;;20.00;50.20;;;;;;5018208;28;20116;-68
2023/01/28 05:26:17;;;;;;;0.93;0.80;;;20.00;50.10;;;;;;5034798;28;20461;-68
2023/01/28 05:28:43;;;;;;;1.10;0.80;;;20.00;50.10;;;;;;5035696;28;20030;-68
2023/01/28 05:31:09;;;;;;;1.17;0.82;;;20.00;50.20;;;;;;5019676;28;20398;-68
2023/01/28 05:33:35;;;;;;;1.63;0.98;;;20.00;50.20;;;;;;5024017;28;20030;-68
2023/01/28 05:36:01;;;;;;;1.23;0.82;;;20.00;50.20;;;;;;5029043;28;20719;-68
2023/01/28 05:38:26;;;;;;;1.40;0.80;;;20.00;50.20;;;;;;5023439;28;20037;-68
2023/01/28 05:40:52;;;;;;;1.02;0.90;;;20.00;50.30;;;;;;5021033;28;20029;-68
2023/01/28 05:43:18;;;;;;;1.20;0.90;;;20.00;50.30;;;;;;5038099;28;20049;-68
2023/01/28 05:45:43;;;;;;;1.35;0.82;;;20.00;50.30;;;;;;5018638;28;20092;-68
2023/01/28 05:48:09;;;;;;;1.27;0.80;;;20.00;50.30;;;;;;5023737;28;20649;-68
2023/01/28 05:50:34;;;;;;;1.20;0.85;;;20.00;50.30;;;;;;5023107;28;20029;-69
2023/01/28 05:53:00;;;;;;;0.85;0.70;;;20.00;50.40;;;;;;5024726;28;20021;-68
2023/01/28 05:55:26;;;;;;;1.17;0.82;;;20.00;50.40;;;;;;5024208;28;20026;-68
2023/01/28 05:57:51;;;;;;;1.10;0.82;;;20.00;50.40;;;;;;5024234;28;20033;-69
2023/01/28 06:00:17;;;;;;;1.08;0.80;;;20.00;50.40;;;;;;5024647;28;20033;-68
2023/01/28 06:02:43;;;;;;;1.40;0.90;;;19.90;50.40;;;;;;5022309;28;20195;-69
2023/01/28 06:05:09;;;;;;;1.40;0.93;;;19.90;50.40;;;;;;5022922;28;20473;-69
2023/01/28 06:07:35;;;;;;;1.33;0.95;;;19.90;50.40;;;;;;5023387;28;20040;-69
2023/01/28 06:10:00;;;;;;;1.73;1.00;;;19.90;50.40;;;;;;5024562;28;20492;-68
2023/01/28 06:12:26;;;;;;;1.38;0.90;;;19.90;50.50;;;;;;5020023;28;20466;-68
2023/01/28 06:14:52;;;;;;;1.25;0.80;;;19.90;50.50;;;;;;5024331;28;20072;-68
2023/01/28 06:17:17;;;;;;;1.00;0.90;;;19.90;50.50;;;;;;5022764;28;20457;-67
2023/01/28 06:19:43;;;;;;;1.10;0.70;;;19.90;50.50;;;;;;5022652;28;20064;-68
2023/01/28 06:22:09;;;;;;;1.15;0.90;;;19.90;50.50;;;;;;5020917;28;20028;-68
2023/01/28 06:24:41;;;;;;;0.90;0.70;;;19.90;50.50;;;;;;5022144;28;20125;-70
2023/01/28 06:27:07;;;;;;;1.40;0.80;;;19.90;50.60;;;;;;5018294;28;20101;-69
2023/01/28 06:29:32;;;;;;;0.98;0.80;;;19.90;50.60;;;;;;5021058;28;20109;-68
2023/01/28 06:31:58;;;;;;;1.52;0.80;;;19.90;50.60;;;;;;5023702;28;20029;-68
2023/01/28 06:34:24;;;;;;;1.25;0.90;;;19.90;50.60;;;;;;5037282;28;20594;-68
2023/01/28 06:36:51;;;;;;;1.80;1.10;;;19.90;50.60;;;;;;5023204;28;20105;-69
2023/01/28 06:39:20;;;;;;;1.13;0.80;;;19.90;50.60;;;;;;5023512;28;20438;-68
2023/01/28 06:41:46;;;;;;;1.40;0.90;;;19.80;50.70;;;;;;5018792;28;20523;-68
2023/01/28 06:44:11;;;;;;;1.40;0.90;;;19.90;50.60;;;;;;5021229;28;20038;-68
2023/01/28 06:46:37;;;;;;;1.40;1.00;;;19.90;50.60;;;;;;5022595;28;20026;-71
2023/01/28 06:49:03;;;;;;;1.20;0.90;;;19.80;50.60;;;;;;5020696;28;20390;-68
2023/01/28 06:51:28;;;;;;;1.20;0.73;;;19.80;50.60;;;;;;5023235;28;20021;-69
2023/01/28 06:53:54;;;;;;;1.40;0.93;;;19.80;50.60;;;;;;5023956;28;20544;-68
2023/01/28 06:56:19;;;;;;;1.20;1.00;;;19.80;50.60;;;;;;5021588;28;20047;-68
2023/01/28 06:58:45;;;;;;;2.08;1.00;;;19.80;50.60;;;;;;5022170;28;20047;-68
2023/01/28 07:01:11;;;;;;;1.48;0.88;;;19.80;50.60;;;;;;5036174;28;20173;-69
2023/01/28 07:03:36;;;;;;;1.40;1.00;;;19.80;50.70;;;;;;5022466;28;20025;-68
2023/01/28 07:06:02;;;;;;;1.42;1.10;;;19.80;50.60;;;;;;5019454;28;20032;-68
2023/01/28 07:08:27;;;;;;;2.03;0.90;;;19.80;50.70;;;;;;5017893;28;20045;-69
2023/01/28 07:10:53;;;;;;;1.63;0.90;;;19.80;50.70;;;;;;5022733;28;20148;-68
2023/01/28 07:13:18;;;;;;;1.58;1.00;;;19.80;50.70;;;;;;5024077;28;20025;-68
2023/01/28 07:15:44;;;;;;;1.50;0.80;;;19.80;50.70;;;;;;5019687;28;20428;-68
2023/01/28 07:18:10;;;;;;;1.55;0.98;;;19.80;50.70;;;;;;5020757;28;20111;-68
2023/01/28 07:20:35;;;;;;;1.35;0.90;;;19.80;50.70;;;;;;5022023;28;20125;-68
2023/01/28 07:23:01;;;;;;;1.30;0.90;;;19.80;50.70;;;;;;5025813;28;20437;-69
2023/01/28 07:25:26;;;;;;;1.92;1.00;;;19.80;50.70;;;;;;5018616;28;20037;-68
2023/01/28 07:27:52;;;;;;;1.65;0.90;;;19.80;50.70;;;;;;5021902;28;20131;-68
2023/01/28 07:30:19;;;;;;;1.10;0.90;;;19.80;50.70;;;;;;5017164;28;20057;-68
2023/01/28 07:32:45;;;;;;;1.13;0.82;;;19.80;50.70;;;;;;5026545;28;20021;-69
2023/01/28 07:35:12;;;;;;;1.63;0.90;;;19.80;50.70;;;;;;5026897;28;20022;-68
2023/01/28 07:37:38;;;;;;;1.90;1.00;;;19.80;50.70;;;;;;5022495;28;20029;-68
2023/01/28 07:40:04;;;;;;;1.30;0.90;;;19.80;50.70;;;;;;5023856;28;20045;-68
2023/01/28 07:42:30;;;;;;;1.30;0.90;;;19.80;50.80;;;;;;5020032;28;20030;-68
2023/01/28 07:44:56;;;;;;;1.20;0.80;;;19.70;50.70;;;;;;5020971;28;20034;-68
2023/01/28 07:47:21;;;;;;;1.63;0.90;;;19.70;50.70;;;;;;5018706;28;20060;-68
2023/01/28 07:49:47;;;;;;;1.38;0.82;;;19.70;50.70;;;;;;5023403;28;20761;-67
2023/01/28 07:52:13;;;;;;;1.75;0.90;;;19.70;50.70;;;;;;5027874;28;20021;-68
2023/01/28 07:54:38;;;;;;;1.67;1.00;;;19.70;50.70;;;;;;5016101;28;20029;-68
2023/01/28 07:57:08;;;;;;;1.60;0.90;;;19.70;50.70;;;;;;5017577;28;20040;-68
2023/01/28 07:59:34;;;;;;;1.20;0.90;;;19.70;50.70;;;;;;5020162;28;20143;-68
2023/01/28 08:02:00;;;;;;;1.48;1.00;;;19.70;50.70;;;;;;5019154;28;20481;-68
2023/01/28 08:04:25;;;;;;;1.42;1.00;;;19.70;50.70;;;;;;5020885;28;20032;-68
2023/01/28 08:06:51;;;;;;;1.88;0.98;;;19.70;50.70;;;;;;5015662;28;20531;-68
2023/01/28 08:09:17;;;;;;;1.65;0.90;;;19.70;50.70;;;;;;5017667;28;20036;-68
2023/01/28 08:11:42;;;;;;;1.10;0.80;;;19.70;50.70;;;;;;5020270;28;20159;-68
2023/01/28 08:14:10;;;;;;;1.50;0.90;;;19.70;50.80;;;;;;5022456;28;20454;-69
2023/01/28 08:16:35;;;;;;;1.63;1.00;;;19.70;50.70;;;;;;5019264;28;20033;-68
2023/01/28 08:19:01;;;;;;;1.73;1.00;;;19.70;50.70;;;;;;5018269;28;20482;-69
2023/01/28 08:21:27;;;;;;;1.83;0.98;;;19.70;50.70;;;;;;5020971;28;20077;-68
2023/01/28 08:23:54;;;;;;;1.20;0.90;;;19.70;50.70;;;;;;5020188;28;20122;-68
2023/01/28 08:26:19;;;;;;;1.30;0.90;;;19.70;50.70;;;;;;5021026;28;20121;-68
2023/01/28 08:28:45;;;;;;;1.77;1.00;;;19.70;50.70;;;;;;5022168;28;20161;-68
2023/01/28 08:31:11;;;;;;;2.33;1.13;;;19.70;50.70;;;;;;5016315;28;20466;-68
2023/01/28 08:33:36;;;;;;;1.50;0.88;;;19.70;50.70;;;;;;5020404;28;20030;-68
2023/01/28 08:36:03;;;;;;;0.77;0.73;;;19.70;50.70;;;;;;5018112;28;20425;-69
2023/01/28 08:38:29;;;;;;;1.50;0.95;;;19.70;50.70;;;;;;5016116;28;20406;-68
2023/01/28 08:40:58;;;;;;;1.48;0.90;;;19.70;50.70;;;;;;5019852;28;20116;-68
2023/01/28 08:43:24;;;;;;;1.70;0.88;;;19.60;50.70;;;;;;5033569;28;20108;-68
2023/01/28 08:45:50;;;;;;;1.00;0.80;;;19.60;50.70;;;;;;5018363;28;20042;-68
2023/01/28 08:48:18;;;;;;;1.77;1.00;;;19.60;50.70;;;;;;5022594;28;20068;-68
2023/01/28 08:50:44;;;;;;;1.25;1.00;;;19.60;50.80;;;;;;5015873;28;20395;-68
2023/01/28 08:53:18;;;;;;;1.65;0.90;;;19.60;50.80;;;;;;5019964;28;20460;-68
2023/01/28 08:55:45;;;;;;;2.08;1.13;;;19.60;50.80;;;;;;5020036;28;20089;-68
2023/01/28 08:58:13;;;;;;;1.50;1.00;;;19.60;50.80;;;;;;5017482;28;20022;-68
2023/01/28 09:00:40;;;;;;;1.38;1.00;;;19.60;50.80;;;;;;5016947;28;20116;-68
2023/01/28 09:03:06;;;;;;;1.92;1.00;;;19.60;50.90;;;;;;5022811;28;20062;-68
2023/01/28 09:05:33;;;;;;;1.50;0.90;;;19.60;50.90;;;;;;5019748;28;20045;-69
2023/01/28 09:08:04;;;;;;;1.80;1.00;;;19.60;51.00;;;;;;5018804;28;20120;-68
2023/01/28 09:10:30;;;;;;;1.17;0.90;;;19.60;51.00;;;;;;5018529;28;20028;-68
2023/01/28 09:12:55;;;;;;;1.52;1.00;;;19.60;51.00;;;;;;5016989;28;20025;-68
2023/01/28 09:15:21;;;;;;;1.58;0.90;;;19.60;51.00;;;;;;5025535;28;20026;-68
2023/01/28 09:17:46;;;;;;;1.50;1.00;;;19.60;51.10;;;;;;5022395;28;20054;-68
2023/01/28 09:20:12;;;;;;;1.30;0.98;;;19.60;51.10;;;;;;5020834;28;20038;-68
2023/01/28 09:22:38;;;;;;;1.80;1.00;;;19.60;51.10;;;;;;5020188;28;20603;-68
2023/01/28 09:25:04;;;;;;;2.08;1.10;;;19.60;51.10;;;;;;5021202;28;20125;-68
2023/01/28 09:27:29;;;;;;;1.48;0.90;;;19.60;51.10;;;;;;5018287;28;20056;-68
2023/01/28 09:29:55;;;;;;;1.67;1.00;;;19.60;51.10;;;;;;5017760;28;20029;-68
2023/01/28 09:32:22;;;;;;;1.45;0.90;;;19.60;51.20;;;;;;5019066;28;20105;-67
2023/01/28 09:34:48;;;;;;;1.92;1.00;;;19.60;51.20;;;;;;5016110;28;20235;-68
2023/01/28 09:37:13;;;;;;;1.80;1.10;;;19.60;51.20;;;;;;5019308;28;20247;-68
2023/01/28 09:39:39;;;;;;;1.60;1.08;;;19.60;51.20;;;;;;5015088;28;20030;-68
2023/01/28 09:42:33;;;;;;;1.75;1.00;;;19.60;51.30;;;;;;5016812;28;20052;-67
2023/01/28 09:45:15;;;;;;;1.55;1.00;;;19.50;51.40;;;;;;5018468;28;20037;-68
2023/01/28 09:47:54;;;;;;;2.47;1.00;;;19.50;51.50;;;;;;5017448;28;20492;-67
2023/01/28 09:50:34;;;;;;;1.40;0.90;;;19.50;51.40;;;;;;5017483;28;20030;-68
2023/01/28 09:53:10;;;;;;;1.92;1.13;;;19.50;51.40;;;;;;5016162;28;20022;-68
2023/01/28 09:55:43;;;;;;;1.42;0.90;;;19.50;51.40;;;;;;5018590;28;20054;-68
2023/01/28 09:58:14;;;;;;;1.70;0.90;;;19.50;51.40;;;;;;5019728;28;20030;-68
2023/01/28 10:01:04;;;;;;;2.08;1.13;;;19.50;51.50;;;;;;5017461;28;20385;-68
2023/01/28 10:04:12;;;;;;;1.52;0.98;;;19.50;51.50;;;;;;5017190;28;20104;-67
2023/01/28 10:06:38;;;;;;;1.85;0.98;;;19.50;51.40;;;;;;5013900;28;20062;-69
2023/01/28 10:09:33;;;;;;;1.60;1.00;;;19.60;51.50;;;;;;5019340;28;20073;-68
2023/01/28 10:12:13;;;;;;;1.88;0.90;;;19.60;51.50;;;;;;5022610;28;20025;-67
2023/01/28 10:14:48;;;;;;;1.73;0.93;;;19.50;51.40;;;;;;5021412;28;20914;-67
2023/01/28 10:17:31;;;;;;;2.03;1.10;;;19.60;51.50;;;;;;5021501;28;20060;-67
2023/01/28 10:20:02;;;;;;;1.73;0.95;;;19.50;51.40;;;;;;5022260;28;20022;-68
2023/01/28 10:22:49;;;;;;;1.50;0.90;;;19.60;51.50;;;;;;5022039;28;20030;-67
2023/01/28 10:25:24;;;;;;;2.28;1.00;;;19.50;51.50;;;;;;5018691;28;20565;-67
2023/01/28 10:27:50;;;;;;;1.80;0.90;;;19.60;51.50;;;;;;5023756;28;20038;-67
2023/01/28 10:30:24;;;;;;;1.17;0.80;;;19.60;51.50;;;;;;5021979;28;20105;-68
2023/01/28 10:33:03;;;;;;;1.75;1.00;;;19.60;51.50;;;;;;5021086;28;20022;-68
2023/01/28 10:35:36;;;;;;;1.20;0.90;;;19.60;51.50;;;;;;5022204;28;20022;-67
2023/01/28 10:38:06;;;;;;;1.50;0.90;;;19.60;51.50;;;;;;5019728;28;20089;-67
2023/01/28 10:40:33;;;;;;;1.70;1.10;;;19.60;51.50;;;;;;5022783;28;20029;-68
2023/01/28 10:42:59;;;;;;;1.48;1.10;;;19.60;51.50;;;;;;5022443;28;20508;-67
2023/01/28 10:45:28;;;;;;;1.40;1.00;;;19.60;51.50;;;;;;5021535;28;20038;-68
2023/01/28 10:48:02;;;;;;;;;;;19.60;51.60;;;;;;5017869;28;20681;-68
2023/01/28 10:50:30;;;;;;;1.92;1.20;;;19.60;51.60;;;;;;5021297;28;19909;-67
2023/01/28 10:53:01;;;;;;;1.70;1.20;;;19.60;51.60;;;;;;5021075;28;20052;-68
2023/01/28 10:55:30;;;;;;;1.98;1.00;;;19.60;51.60;;;;;;5021663;28;20033;-68
2023/01/28 10:57:56;;;;;;;;;;;19.60;51.50;;;;;;5023126;28;20437;-68
2023/01/28 11:00:24;;;;;;;2.42;0.98;;;19.60;51.60;;;;;;5023136;28;19927;-68
2023/01/28 11:02:50;;;;;;;2.22;1.20;;;19.60;51.60;;;;;;5021949;28;20061;-68
2023/01/28 11:05:19;;;;;;;1.23;0.90;;;19.60;51.60;;;;;;5023642;28;20057;-69
2023/01/28 11:07:47;;;;;;;1.58;0.90;;;19.60;51.80;;;;;;5021892;28;20599;-67
2023/01/28 11:10:25;;;;;;;2.17;1.00;;;19.60;52.20;;;;;;5022135;28;20112;-69
2023/01/28 11:12:56;;;;;;;1.50;0.90;;;19.60;52.40;;;;;;5021095;28;20064;-69
2023/01/28 11:15:21;;;;;;;2.15;1.02;;;19.60;52.10;;;;;;5035551;28;20026;-67
2023/01/28 11:17:59;;;;;;;1.75;1.08;;;19.70;52.10;;;;;;5018004;28;20425;-68
2023/01/28 11:20:27;;;;;;;2.10;0.93;;;19.80;52.00;;;;;;5020275;28;20477;-68
2023/01/28 11:22:53;;;;;;;3.08;1.15;;;19.80;52.00;;;;;;5019880;28;20026;-69
2023/01/28 11:25:33;;;;;;;1.73;1.02;;;19.80;51.80;;;;;;5022392;28;20052;-70
2023/01/28 11:28:05;;;;;;;2.13;0.95;;;19.80;52.00;;;;;;5020526;28;20040;-68
2023/01/28 11:30:34;;;;;;;1.23;0.90;;;19.90;52.00;;;;;;5019659;28;20125;-69
2023/01/28 11:33:18;;;;;;;1.60;0.90;;;19.90;51.90;;;;;;5017254;28;20039;-68
2023/01/28 11:36:19;;;;;;;3.97;1.00;;;19.90;51.80;;;;;;5016987;28;20026;-68
2023/01/28 11:38:52;;;;;;;1.75;1.00;;;19.90;51.70;;;;;;5021246;28;20041;-68
2023/01/28 11:41:28;;;;;;;1.85;1.00;;;20.00;51.60;;;;;;5025324;28;20496;-68
2023/01/28 11:43:54;;;;;;;1.30;0.82;;;20.00;51.50;;;;;;5021884;28;20493;-68
2023/01/28 11:46:19;;;;;;;1.60;1.10;;;20.10;51.50;;;;;;5019022;28;20030;-70
2023/01/28 11:48:45;;;;;;;1.67;1.10;;;20.10;51.40;;;;;;5021713;28;20036;-67
2023/01/28 11:51:42;;;;;;;1.95;1.15;;;20.10;51.40;;;;;;5023560;28;20018;-69
2023/01/28 11:54:13;;;;;;;1.75;1.20;;;20.10;51.40;;;;;;5022706;28;20076;-69
2023/01/28 11:57:09;;;;;;;2.40;1.08;;;20.10;51.40;;;;;;5032918;28;20088;-69
2023/01/28 11:59:53;;;;;;;2.72;1.38;;;20.20;51.50;;;;;;5016865;28;20030;-68
2023/01/28 12:02:28;;;;;;;1.92;1.20;;;20.20;51.50;;;;;;5021993;28;20033;-69
2023/01/28 12:05:35;;;;;;;2.58;1.38;;;20.20;51.50;;;;;;5018917;28;20029;-67
2023/01/28 12:08:23;;;;;;;2.05;1.23;;;20.20;51.40;;;;;;5015444;28;20053;-69
2023/01/28 12:11:10;;;;;;;2.90;1.30;;;20.30;51.40;;;;;;5035548;28;20515;-67
2023/01/28 12:14:00;;;;;;;2.38;1.52;;;20.30;51.30;;;;;;5020277;28;20526;-67
2023/01/28 12:16:31;;;;;;;2.75;1.50;;;20.30;51.30;;;;;;5021800;28;20152;-68
2023/01/28 12:19:19;;;;;;;3.13;1.80;;;20.40;51.40;;;;;;5020647;28;20338;-68
2023/01/28 12:22:04;;;;;;;2.72;1.65;;;20.40;51.40;;;;;;5020767;28;20022;-68
2023/01/28 12:24:56;;;;;;;2.70;1.70;;;20.40;51.40;;;;;;5024865;28;20025;-67
2023/01/28 12:27:47;;;;;;;3.83;1.70;;;20.40;51.30;;;;;;5022933;28;20030;-68
2023/01/28 12:30:35;;;;;;;3.05;1.77;;;20.50;51.20;;;;;;5019653;28;20144;-67
2023/01/28 12:33:17;;;;;;;3.10;1.98;;;20.50;51.20;;;;;;5017854;28;20046;-67
2023/01/28 12:35:51;;;;;;;4.22;2.33;;;20.50;51.10;;;;;;5020755;28;20397;-68
2023/01/28 12:38:26;;;;;;;2.95;1.73;;;20.60;51.10;;;;;;5019802;28;20439;-68
2023/01/28 12:41:15;;;;;;;3.10;1.90;;;20.60;51.10;;;;;;5023874;28;20030;-70
2023/01/28 12:44:01;;;;;;;2.88;1.65;;;20.60;51.10;;;;;;5017798;28;20029;-68
2023/01/28 12:46:51;;;;;;;2.80;1.83;;;20.60;51.00;;;;;;5025747;28;20100;-67
2023/01/28 12:49:19;;;;;;;3.42;2.00;;;20.70;51.10;;;;;;5015012;28;20563;-68
2023/01/28 12:52:16;;;;;;;3.30;1.70;;;20.70;51.00;;;;;;5019411;28;20032;-66
2023/01/28 12:55:00;;;;;;;4.20;2.25;;;20.70;51.00;;;;;;5018079;28;20025;-67
2023/01/28 12:57:29;;;;;;;4.43;2.10;;;20.70;51.00;;;;;;5020301;28;20477;-67
2023/01/28 13:00:05;;;;;;;3.50;1.97;;;20.70;51.00;;;;;;5021236;28;20056;-67
2023/01/28 13:02:36;;;;;;;3.63;2.05;;;20.80;51.00;;;;;;5018349;28;20401;-68
2023/01/28 13:05:16;;;;;;;3.85;2.00;;;20.80;51.00;;;;;;5026637;28;20119;-70
2023/01/28 13:07:53;;;;;;;3.28;1.80;;;20.80;51.10;;;;;;5019050;28;20030;-66
2023/01/28 13:10:27;;;;;;;3.22;2.03;;;20.80;51.20;;;;;;5015815;28;20504;-68
2023/01/28 13:12:54;;;;;;;3.30;2.00;;;20.80;51.20;;;;;;5025293;28;20033;-67
2023/01/28 13:15:20;;;;;;;3.40;2.03;;;20.80;51.20;;;;;;5019482;28;20017;-68
2023/01/28 13:18:04;;;;;;;3.50;1.92;;;20.80;51.20;;;;;;5016139;28;20029;-67
2023/01/28 13:20:44;;;;;;;3.90;2.15;;;20.80;51.20;;;;;;5016975;28;20033;-69
2023/01/28 13:23:25;;;;;;;3.80;2.05;;;20.80;51.20;;;;;;5015564;28;20500;-68
2023/01/28 13:25:55;;;;;;;3.60;2.08;;;20.80;51.30;;;;;;5024863;28;20533;-68
2023/01/28 13:28:32;;;;;;;3.05;1.95;;;20.90;51.30;;;;;;5016866;28;20389;-68
2023/01/28 13:31:07;;;;;;;3.88;2.10;;;20.90;51.30;;;;;;5017047;28;20389;-68
2023/01/28 13:33:38;;;;;;;3.28;2.03;;;20.90;51.20;;;;;;5019627;28;20098;-70
2023/01/28 13:36:26;;;;;;;3.30;1.88;;;20.90;51.20;;;;;;5017180;28;20065;-66
2023/01/28 13:39:13;;;;;;;3.67;2.00;;;20.90;51.30;;;;;;5017355;28;20033;-66